sensor_id;sensor_type;location;lat;lon;timestamp;P1;durP1;ratioP1;P2;durP2;ratioP2
20320;SDS011;10318;47.674;9.052;2022-08-03T00:01:48;3.05;;;1.40;;
20320;SDS011;10318;47.674;9.052;2022-08-03T00:04:14;1.58;;;1.48;;
20320;SDS011;10318;47.674;9.052;2022-08-03T00:06:41;3.70;;;1.63;;
20320;SDS011;10318;47.674;9.052;2022-08-03T00:09:08;4.38;;;1.70;;
20320;SDS011;10318;47.674;9.052;2022-08-03T00:11:35;3.95;;;1.70;;
20320;SDS011;10318;47.674;9.052;2022-08-03T00:14:03;2.10;;;1.65;;
20320;SDS011;10318;47.674;9.052;2022-08-03T00:16:30;3.10;;;1.70;;
20320;SDS011;10318;47.674;9.052;2022-08-03T00:18:57;1.95;;;1.75;;
20320;SDS011;10318;47.674;9.052;2022-08-03T00:21:26;4.25;;;1.70;;
20320;SDS011;10318;47.674;9.052;2022-08-03T00:23:53;2.13;;;1.60;;
20320;SDS011;10318;47.674;9.052;2022-08-03T00:26:20;3.90;;;1.63;;
20320;SDS011;10318;47.674;9.052;2022-08-03T00:28:47;3.40;;;1.75;;
20320;SDS011;10318;47.674;9.052;2022-08-03T00:31:14;2.33;;;1.90;;
20320;SDS011;10318;47.674;9.052;2022-08-03T00:33:41;2.55;;;2.05;;
20320;SDS011;10318;47.674;9.052;2022-08-03T00:36:28;2.55;;;2.08;;
20320;SDS011;10318;47.674;9.052;2022-08-03T00:38:54;3.45;;;1.70;;
20320;SDS011;10318;47.674;9.052;2022-08-03T00:41:22;4.63;;;2.15;;
20320;SDS011;10318;47.674;9.052;2022-08-03T00:43:49;3.70;;;1.80;;
20320;SDS011;10318;47.674;9.052;2022-08-03T00:46:15;1.98;;;1.77;;
20320;SDS011;10318;47.674;9.052;2022-08-03T00:48:50;4.95;;;2.10;;
20320;SDS011;10318;47.674;9.052;2022-08-03T00:51:17;2.40;;;1.83;;
20320;SDS011;10318;47.674;9.052;2022-08-03T00:53:44;2.45;;;1.85;;
20320;SDS011;10318;47.674;9.052;2022-08-03T00:56:12;3.20;;;2.17;;
20320;SDS011;10318;47.674;9.052;2022-08-03T00:58:39;2.50;;;2.13;;
20320;SDS011;10318;47.674;9.052;2022-08-03T01:01:05;3.45;;;2.00;;
20320;SDS011;10318;47.674;9.052;2022-08-03T01:03:32;4.85;;;2.00;;
20320;SDS011;10318;47.674;9.052;2022-08-03T01:06:04;3.25;;;1.98;;
20320;SDS011;10318;47.674;9.052;2022-08-03T01:11:11;3.80;;;2.00;;
20320;SDS011;10318;47.674;9.052;2022-08-03T01:27:07;2.25;;;1.98;;
20320;SDS011;10318;47.674;9.052;2022-08-03T01:32:11;1.98;;;1.77;;
20320;SDS011;10318;47.674;9.052;2022-08-03T01:35:08;2.17;;;1.65;;
20320;SDS011;10318;47.674;9.052;2022-08-03T01:37:41;2.88;;;1.73;;
20320;SDS011;10318;47.674;9.052;2022-08-03T01:40:09;3.45;;;2.20;;
20320;SDS011;10318;47.674;9.052;2022-08-03T01:42:37;4.63;;;2.05;;
20320;SDS011;10318;47.674;9.052;2022-08-03T01:45:05;2.38;;;1.92;;
20320;SDS011;10318;47.674;9.052;2022-08-03T01:47:33;2.50;;;1.80;;
20320;SDS011;10318;47.674;9.052;2022-08-03T01:49:59;1.80;;;1.70;;
20320;SDS011;10318;47.674;9.052;2022-08-03T01:52:27;1.90;;;1.80;;
20320;SDS011;10318;47.674;9.052;2022-08-03T01:54:56;2.55;;;1.90;;
20320;SDS011;10318;47.674;9.052;2022-08-03T01:57:23;2.80;;;2.08;;
20320;SDS011;10318;47.674;9.052;2022-08-03T01:59:50;2.38;;;1.65;;
20320;SDS011;10318;47.674;9.052;2022-08-03T02:02:18;2.83;;;2.10;;
20320;SDS011;10318;47.674;9.052;2022-08-03T02:04:59;3.65;;;2.10;;
20320;SDS011;10318;47.674;9.052;2022-08-03T02:07:26;2.92;;;1.90;;
20320;SDS011;10318;47.674;9.052;2022-08-03T02:09:54;4.82;;;2.08;;
20320;SDS011;10318;47.674;9.052;2022-08-03T02:12:22;2.42;;;1.80;;
20320;SDS011;10318;47.674;9.052;2022-08-03T02:14:50;2.75;;;1.90;;
20320;SDS011;10318;47.674;9.052;2022-08-03T02:17:17;2.85;;;1.90;;
20320;SDS011;10318;47.674;9.052;2022-08-03T02:20:04;3.67;;;2.10;;
20320;SDS011;10318;47.674;9.052;2022-08-03T02:22:32;2.97;;;1.90;;
20320;SDS011;10318;47.674;9.052;2022-08-03T02:24:59;2.10;;;1.75;;
20320;SDS011;10318;47.674;9.052;2022-08-03T02:27:26;2.75;;;2.28;;
20320;SDS011;10318;47.674;9.052;2022-08-03T02:30:00;3.15;;;2.15;;
20320;SDS011;10318;47.674;9.052;2022-08-03T02:32:29;2.35;;;2.15;;
20320;SDS011;10318;47.674;9.052;2022-08-03T02:34:56;2.55;;;1.88;;
20320;SDS011;10318;47.674;9.052;2022-08-03T02:37:24;2.53;;;2.25;;
20320;SDS011;10318;47.674;9.052;2022-08-03T02:39:53;2.90;;;2.03;;
20320;SDS011;10318;47.674;9.052;2022-08-03T02:42:23;2.63;;;1.92;;
20320;SDS011;10318;47.674;9.052;2022-08-03T02:44:50;2.70;;;1.92;;
20320;SDS011;10318;47.674;9.052;2022-08-03T02:47:18;2.78;;;1.95;;
20320;SDS011;10318;47.674;9.052;2022-08-03T02:49:47;2.42;;;2.22;;
20320;SDS011;10318;47.674;9.052;2022-08-03T02:52:18;2.47;;;2.03;;
20320;SDS011;10318;47.674;9.052;2022-08-03T02:54:45;2.30;;;1.98;;
20320;SDS011;10318;47.674;9.052;2022-08-03T02:57:13;2.58;;;1.88;;
20320;SDS011;10318;47.674;9.052;2022-08-03T02:59:40;3.30;;;1.95;;
20320;SDS011;10318;47.674;9.052;2022-08-03T03:02:08;3.55;;;2.38;;
20320;SDS011;10318;47.674;9.052;2022-08-03T03:04:35;1.90;;;1.70;;
20320;SDS011;10318;47.674;9.052;2022-08-03T03:07:02;3.97;;;2.25;;
20320;SDS011;10318;47.674;9.052;2022-08-03T03:09:30;2.90;;;2.17;;
20320;SDS011;10318;47.674;9.052;2022-08-03T03:12:09;3.25;;;2.08;;
20320;SDS011;10318;47.674;9.052;2022-08-03T03:14:36;5.72;;;2.25;;
20320;SDS011;10318;47.674;9.052;2022-08-03T03:17:03;3.35;;;2.28;;
20320;SDS011;10318;47.674;9.052;2022-08-03T03:19:31;2.38;;;2.08;;
20320;SDS011;10318;47.674;9.052;2022-08-03T03:21:59;2.70;;;2.08;;
20320;SDS011;10318;47.674;9.052;2022-08-03T03:24:27;3.42;;;2.00;;
20320;SDS011;10318;47.674;9.052;2022-08-03T03:26:55;2.35;;;1.98;;
20320;SDS011;10318;47.674;9.052;2022-08-03T03:29:22;3.03;;;2.22;;
20320;SDS011;10318;47.674;9.052;2022-08-03T03:31:49;2.47;;;2.00;;
20320;SDS011;10318;47.674;9.052;2022-08-03T03:34:16;5.38;;;2.20;;
20320;SDS011;10318;47.674;9.052;2022-08-03T03:36:43;2.60;;;2.40;;
20320;SDS011;10318;47.674;9.052;2022-08-03T03:39:10;2.58;;;2.00;;
20320;SDS011;10318;47.674;9.052;2022-08-03T03:41:41;3.55;;;2.03;;
20320;SDS011;10318;47.674;9.052;2022-08-03T03:44:09;4.22;;;2.10;;
20320;SDS011;10318;47.674;9.052;2022-08-03T03:46:36;3.42;;;1.75;;
20320;SDS011;10318;47.674;9.052;2022-08-03T03:49:04;2.20;;;2.00;;
20320;SDS011;10318;47.674;9.052;2022-08-03T03:51:31;2.58;;;2.05;;
20320;SDS011;10318;47.674;9.052;2022-08-03T03:53:58;3.45;;;2.13;;
20320;SDS011;10318;47.674;9.052;2022-08-03T03:56:25;2.38;;;2.03;;
20320;SDS011;10318;47.674;9.052;2022-08-03T03:58:52;6.35;;;2.00;;
20320;SDS011;10318;47.674;9.052;2022-08-03T04:01:19;3.53;;;2.13;;
20320;SDS011;10318;47.674;9.052;2022-08-03T04:03:46;3.22;;;1.92;;
20320;SDS011;10318;47.674;9.052;2022-08-03T04:06:12;2.95;;;2.00;;
20320;SDS011;10318;47.674;9.052;2022-08-03T04:09:00;4.22;;;1.85;;
20320;SDS011;10318;47.674;9.052;2022-08-03T04:14:54;4.13;;;2.38;;
20320;SDS011;10318;47.674;9.052;2022-08-03T04:17:02;2.30;;;2.10;;
20320;SDS011;10318;47.674;9.052;2022-08-03T04:19:31;1.95;;;1.77;;
20320;SDS011;10318;47.674;9.052;2022-08-03T04:22:00;3.60;;;2.22;;
20320;SDS011;10318;47.674;9.052;2022-08-03T04:24:29;5.40;;;2.50;;
20320;SDS011;10318;47.674;9.052;2022-08-03T04:26:58;3.80;;;1.88;;
20320;SDS011;10318;47.674;9.052;2022-08-03T04:29:26;5.53;;;2.08;;
20320;SDS011;10318;47.674;9.052;2022-08-03T04:31:54;2.67;;;2.20;;
20320;SDS011;10318;47.674;9.052;2022-08-03T04:34:23;2.42;;;2.00;;
20320;SDS011;10318;47.674;9.052;2022-08-03T04:36:50;1.60;;;1.50;;
20320;SDS011;10318;47.674;9.052;2022-08-03T04:39:24;3.40;;;1.70;;
20320;SDS011;10318;47.674;9.052;2022-08-03T04:41:52;2.17;;;1.98;;
20320;SDS011;10318;47.674;9.052;2022-08-03T04:44:37;3.85;;;2.05;;
20320;SDS011;10318;47.674;9.052;2022-08-03T04:47:05;4.75;;;2.08;;
20320;SDS011;10318;47.674;9.052;2022-08-03T04:49:33;2.22;;;1.95;;
20320;SDS011;10318;47.674;9.052;2022-08-03T04:52:01;1.67;;;1.58;;
20320;SDS011;10318;47.674;9.052;2022-08-03T04:54:28;3.78;;;2.10;;
20320;SDS011;10318;47.674;9.052;2022-08-03T04:56:54;3.75;;;2.10;;
20320;SDS011;10318;47.674;9.052;2022-08-03T04:59:21;3.35;;;2.28;;
20320;SDS011;10318;47.674;9.052;2022-08-03T05:01:48;3.13;;;2.13;;
20320;SDS011;10318;47.674;9.052;2022-08-03T05:04:15;2.55;;;2.13;;
20320;SDS011;10318;47.674;9.052;2022-08-03T05:06:41;5.80;;;2.53;;
20320;SDS011;10318;47.674;9.052;2022-08-03T05:09:13;2.95;;;2.08;;
20320;SDS011;10318;47.674;9.052;2022-08-03T05:12:00;2.92;;;2.50;;
20320;SDS011;10318;47.674;9.052;2022-08-03T05:14:27;4.07;;;2.33;;
20320;SDS011;10318;47.674;9.052;2022-08-03T05:16:53;3.33;;;2.20;;
20320;SDS011;10318;47.674;9.052;2022-08-03T05:19:20;2.28;;;2.08;;
20320;SDS011;10318;47.674;9.052;2022-08-03T05:21:47;3.47;;;2.40;;
20320;SDS011;10318;47.674;9.052;2022-08-03T05:24:18;2.95;;;2.20;;
20320;SDS011;10318;47.674;9.052;2022-08-03T05:26:45;2.97;;;2.33;;
20320;SDS011;10318;47.674;9.052;2022-08-03T05:29:13;2.58;;;2.20;;
20320;SDS011;10318;47.674;9.052;2022-08-03T05:31:39;8.82;;;2.83;;
20320;SDS011;10318;47.674;9.052;2022-08-03T05:34:06;3.28;;;2.40;;
20320;SDS011;10318;47.674;9.052;2022-08-03T05:36:33;2.65;;;2.10;;
20320;SDS011;10318;47.674;9.052;2022-08-03T05:39:00;3.72;;;2.47;;
20320;SDS011;10318;47.674;9.052;2022-08-03T05:41:28;3.65;;;2.45;;
20320;SDS011;10318;47.674;9.052;2022-08-03T05:44:03;4.10;;;2.65;;
20320;SDS011;10318;47.674;9.052;2022-08-03T05:46:30;4.88;;;2.75;;
20320;SDS011;10318;47.674;9.052;2022-08-03T05:48:57;3.95;;;2.65;;
20320;SDS011;10318;47.674;9.052;2022-08-03T05:51:23;3.28;;;2.72;;
20320;SDS011;10318;47.674;9.052;2022-08-03T05:53:50;3.30;;;2.50;;
20320;SDS011;10318;47.674;9.052;2022-08-03T05:56:20;4.85;;;2.40;;
20320;SDS011;10318;47.674;9.052;2022-08-03T05:58:47;3.33;;;2.35;;
20320;SDS011;10318;47.674;9.052;2022-08-03T06:01:14;4.47;;;3.03;;
20320;SDS011;10318;47.674;9.052;2022-08-03T06:03:41;3.13;;;2.83;;
20320;SDS011;10318;47.674;9.052;2022-08-03T06:06:08;4.10;;;2.60;;
20320;SDS011;10318;47.674;9.052;2022-08-03T06:08:35;3.97;;;2.67;;
20320;SDS011;10318;47.674;9.052;2022-08-03T06:11:02;5.63;;;2.72;;
20320;SDS011;10318;47.674;9.052;2022-08-03T06:13:28;4.45;;;2.92;;
20320;SDS011;10318;47.674;9.052;2022-08-03T06:15:55;5.95;;;2.85;;
20320;SDS011;10318;47.674;9.052;2022-08-03T06:18:22;6.47;;;3.15;;
20320;SDS011;10318;47.674;9.052;2022-08-03T06:20:50;6.85;;;3.15;;
20320;SDS011;10318;47.674;9.052;2022-08-03T06:23:17;4.30;;;2.88;;
20320;SDS011;10318;47.674;9.052;2022-08-03T06:25:44;3.55;;;2.63;;
20320;SDS011;10318;47.674;9.052;2022-08-03T06:28:11;3.25;;;2.70;;
20320;SDS011;10318;47.674;9.052;2022-08-03T06:31:03;3.78;;;2.90;;
20320;SDS011;10318;47.674;9.052;2022-08-03T06:33:32;4.47;;;3.20;;
20320;SDS011;10318;47.674;9.052;2022-08-03T06:36:18;3.40;;;2.72;;
20320;SDS011;10318;47.674;9.052;2022-08-03T06:38:45;4.85;;;3.00;;
20320;SDS011;10318;47.674;9.052;2022-08-03T06:41:12;5.68;;;3.08;;
20320;SDS011;10318;47.674;9.052;2022-08-03T06:43:39;3.67;;;2.95;;
20320;SDS011;10318;47.674;9.052;2022-08-03T06:46:25;3.20;;;2.70;;
20320;SDS011;10318;47.674;9.052;2022-08-03T06:48:52;5.65;;;3.25;;
20320;SDS011;10318;47.674;9.052;2022-08-03T06:51:19;3.70;;;3.15;;
20320;SDS011;10318;47.674;9.052;2022-08-03T06:54:06;3.22;;;2.60;;
20320;SDS011;10318;47.674;9.052;2022-08-03T06:56:33;4.70;;;3.13;;
20320;SDS011;10318;47.674;9.052;2022-08-03T06:59:00;5.38;;;2.97;;
20320;SDS011;10318;47.674;9.052;2022-08-03T07:01:26;6.25;;;3.13;;
20320;SDS011;10318;47.674;9.052;2022-08-03T07:03:53;4.03;;;2.92;;
20320;SDS011;10318;47.674;9.052;2022-08-03T07:06:22;5.32;;;3.15;;
20320;SDS011;10318;47.674;9.052;2022-08-03T07:08:49;3.85;;;2.83;;
20320;SDS011;10318;47.674;9.052;2022-08-03T07:11:19;4.00;;;2.80;;
20320;SDS011;10318;47.674;9.052;2022-08-03T07:13:46;3.40;;;2.80;;
20320;SDS011;10318;47.674;9.052;2022-08-03T07:16:13;6.00;;;2.90;;
20320;SDS011;10318;47.674;9.052;2022-08-03T07:18:39;5.45;;;3.03;;
20320;SDS011;10318;47.674;9.052;2022-08-03T07:21:06;4.88;;;2.72;;
20320;SDS011;10318;47.674;9.052;2022-08-03T07:23:34;5.22;;;3.10;;
20320;SDS011;10318;47.674;9.052;2022-08-03T07:26:01;6.03;;;2.55;;
20320;SDS011;10318;47.674;9.052;2022-08-03T07:28:28;3.53;;;2.97;;
20320;SDS011;10318;47.674;9.052;2022-08-03T07:30:54;5.43;;;2.95;;
20320;SDS011;10318;47.674;9.052;2022-08-03T07:33:21;5.82;;;3.00;;
20320;SDS011;10318;47.674;9.052;2022-08-03T07:35:48;3.25;;;2.75;;
20320;SDS011;10318;47.674;9.052;2022-08-03T07:38:15;2.85;;;2.30;;
20320;SDS011;10318;47.674;9.052;2022-08-03T07:40:42;4.38;;;2.50;;
20320;SDS011;10318;47.674;9.052;2022-08-03T07:43:11;3.78;;;2.40;;
20320;SDS011;10318;47.674;9.052;2022-08-03T07:45:38;4.63;;;2.30;;
20320;SDS011;10318;47.674;9.052;2022-08-03T07:48:05;3.33;;;2.80;;
20320;SDS011;10318;47.674;9.052;2022-08-03T07:50:38;4.95;;;2.42;;
20320;SDS011;10318;47.674;9.052;2022-08-03T07:53:04;4.30;;;2.67;;
20320;SDS011;10318;47.674;9.052;2022-08-03T07:55:31;3.90;;;2.67;;
20320;SDS011;10318;47.674;9.052;2022-08-03T07:57:59;3.90;;;2.55;;
20320;SDS011;10318;47.674;9.052;2022-08-03T08:00:25;2.80;;;2.30;;
20320;SDS011;10318;47.674;9.052;2022-08-03T08:02:52;3.33;;;2.40;;
20320;SDS011;10318;47.674;9.052;2022-08-03T08:05:19;7.78;;;2.90;;
20320;SDS011;10318;47.674;9.052;2022-08-03T08:07:46;5.93;;;2.65;;
20320;SDS011;10318;47.674;9.052;2022-08-03T08:10:17;3.97;;;2.50;;
20320;SDS011;10318;47.674;9.052;2022-08-03T08:12:44;3.90;;;2.55;;
20320;SDS011;10318;47.674;9.052;2022-08-03T08:15:11;4.43;;;2.72;;
20320;SDS011;10318;47.674;9.052;2022-08-03T08:17:45;5.25;;;3.20;;
20320;SDS011;10318;47.674;9.052;2022-08-03T08:20:22;2.72;;;2.50;;
20320;SDS011;10318;47.674;9.052;2022-08-03T08:23:04;3.80;;;2.67;;
20320;SDS011;10318;47.674;9.052;2022-08-03T08:25:51;2.90;;;2.45;;
20320;SDS011;10318;47.674;9.052;2022-08-03T08:28:18;6.38;;;2.53;;
20320;SDS011;10318;47.674;9.052;2022-08-03T08:30:58;3.65;;;2.47;;
20320;SDS011;10318;47.674;9.052;2022-08-03T08:33:25;3.22;;;2.35;;
20320;SDS011;10318;47.674;9.052;2022-08-03T08:36:07;2.70;;;2.50;;
20320;SDS011;10318;47.674;9.052;2022-08-03T08:38:40;5.15;;;2.92;;
20320;SDS011;10318;47.674;9.052;2022-08-03T08:41:08;2.60;;;2.40;;
20320;SDS011;10318;47.674;9.052;2022-08-03T08:43:36;3.47;;;2.55;;
20320;SDS011;10318;47.674;9.052;2022-08-03T08:46:02;5.05;;;2.63;;
20320;SDS011;10318;47.674;9.052;2022-08-03T08:48:30;4.32;;;2.85;;
20320;SDS011;10318;47.674;9.052;2022-08-03T08:50:57;3.42;;;2.30;;
20320;SDS011;10318;47.674;9.052;2022-08-03T08:53:26;4.57;;;2.83;;
20320;SDS011;10318;47.674;9.052;2022-08-03T08:55:54;3.90;;;2.40;;
20320;SDS011;10318;47.674;9.052;2022-08-03T08:58:28;4.60;;;2.38;;
20320;SDS011;10318;47.674;9.052;2022-08-03T09:00:54;4.80;;;2.50;;
20320;SDS011;10318;47.674;9.052;2022-08-03T09:03:21;2.78;;;2.13;;
20320;SDS011;10318;47.674;9.052;2022-08-03T09:05:57;5.03;;;2.58;;
20320;SDS011;10318;47.674;9.052;2022-08-03T09:08:24;4.10;;;2.50;;
20320;SDS011;10318;47.674;9.052;2022-08-03T09:10:51;3.65;;;2.60;;
20320;SDS011;10318;47.674;9.052;2022-08-03T09:13:18;4.65;;;2.45;;
20320;SDS011;10318;47.674;9.052;2022-08-03T09:15:44;5.18;;;2.92;;
20320;SDS011;10318;47.674;9.052;2022-08-03T09:18:29;3.25;;;2.22;;
20320;SDS011;10318;47.674;9.052;2022-08-03T09:21:11;3.92;;;2.63;;
20320;SDS011;10318;47.674;9.052;2022-08-03T09:23:57;2.42;;;2.17;;
20320;SDS011;10318;47.674;9.052;2022-08-03T09:26:30;7.78;;;2.70;;
20320;SDS011;10318;47.674;9.052;2022-08-03T09:29:08;3.72;;;2.47;;
20320;SDS011;10318;47.674;9.052;2022-08-03T09:31:41;2.22;;;2.03;;
20320;SDS011;10318;47.674;9.052;2022-08-03T09:34:09;4.63;;;2.45;;
20320;SDS011;10318;47.674;9.052;2022-08-03T09:36:46;2.95;;;2.63;;
20320;SDS011;10318;47.674;9.052;2022-08-03T09:39:17;2.88;;;2.13;;
20320;SDS011;10318;47.674;9.052;2022-08-03T09:41:45;2.58;;;2.33;;
20320;SDS011;10318;47.674;9.052;2022-08-03T09:44:13;2.92;;;2.55;;
20320;SDS011;10318;47.674;9.052;2022-08-03T09:46:54;5.57;;;2.60;;
20320;SDS011;10318;47.674;9.052;2022-08-03T09:49:22;3.92;;;2.75;;
20320;SDS011;10318;47.674;9.052;2022-08-03T09:51:49;5.68;;;2.03;;
20320;SDS011;10318;47.674;9.052;2022-08-03T09:54:35;4.20;;;2.58;;
20320;SDS011;10318;47.674;9.052;2022-08-03T09:57:02;5.72;;;2.83;;
20320;SDS011;10318;47.674;9.052;2022-08-03T09:59:30;2.28;;;1.90;;
20320;SDS011;10318;47.674;9.052;2022-08-03T10:01:57;3.47;;;2.22;;
20320;SDS011;10318;47.674;9.052;2022-08-03T10:04:25;4.03;;;2.17;;
20320;SDS011;10318;47.674;9.052;2022-08-03T10:07:02;2.38;;;1.95;;
20320;SDS011;10318;47.674;9.052;2022-08-03T10:09:29;2.17;;;1.90;;
20320;SDS011;10318;47.674;9.052;2022-08-03T10:11:56;2.40;;;1.90;;
20320;SDS011;10318;47.674;9.052;2022-08-03T10:14:25;2.60;;;1.88;;
20320;SDS011;10318;47.674;9.052;2022-08-03T10:16:55;2.50;;;2.08;;
20320;SDS011;10318;47.674;9.052;2022-08-03T10:19:22;4.60;;;2.40;;
20320;SDS011;10318;47.674;9.052;2022-08-03T10:22:00;2.10;;;1.90;;
20320;SDS011;10318;47.674;9.052;2022-08-03T10:24:28;4.25;;;2.20;;
20320;SDS011;10318;47.674;9.052;2022-08-03T10:26:58;5.20;;;2.03;;
20320;SDS011;10318;47.674;9.052;2022-08-03T10:29:27;2.22;;;1.90;;
20320;SDS011;10318;47.674;9.052;2022-08-03T10:31:55;2.80;;;1.85;;
20320;SDS011;10318;47.674;9.052;2022-08-03T10:34:28;3.17;;;2.38;;
20320;SDS011;10318;47.674;9.052;2022-08-03T10:36:59;2.40;;;2.20;;
20320;SDS011;10318;47.674;9.052;2022-08-03T10:39:28;2.50;;;2.17;;
20320;SDS011;10318;47.674;9.052;2022-08-03T10:41:55;2.20;;;2.00;;
20320;SDS011;10318;47.674;9.052;2022-08-03T10:44:36;2.35;;;2.05;;
20320;SDS011;10318;47.674;9.052;2022-08-03T10:47:04;2.92;;;1.95;;
20320;SDS011;10318;47.674;9.052;2022-08-03T10:49:31;2.92;;;1.63;;
20320;SDS011;10318;47.674;9.052;2022-08-03T10:52:01;3.15;;;1.88;;
20320;SDS011;10318;47.674;9.052;2022-08-03T10:54:40;2.17;;;1.65;;
20320;SDS011;10318;47.674;9.052;2022-08-03T10:57:41;3.70;;;1.65;;
20320;SDS011;10318;47.674;9.052;2022-08-03T11:00:11;1.80;;;1.30;;
20320;SDS011;10318;47.674;9.052;2022-08-03T11:05:24;2.47;;;1.50;;
20320;SDS011;10318;47.674;9.052;2022-08-03T11:08:04;1.55;;;1.27;;
20320;SDS011;10318;47.674;9.052;2022-08-03T11:10:38;2.08;;;1.40;;
20320;SDS011;10318;47.674;9.052;2022-08-03T11:13:05;1.60;;;1.50;;
20320;SDS011;10318;47.674;9.052;2022-08-03T11:15:32;2.10;;;1.48;;
20320;SDS011;10318;47.674;9.052;2022-08-03T11:18:09;1.58;;;1.13;;
20320;SDS011;10318;47.674;9.052;2022-08-03T11:20:43;1.58;;;1.20;;
20320;SDS011;10318;47.674;9.052;2022-08-03T11:23:11;1.45;;;1.10;;
20320;SDS011;10318;47.674;9.052;2022-08-03T11:28:41;1.25;;;1.15;;
20320;SDS011;10318;47.674;9.052;2022-08-03T11:34:08;1.25;;;0.90;;
20320;SDS011;10318;47.674;9.052;2022-08-03T11:39:20;2.58;;;1.05;;
20320;SDS011;10318;47.674;9.052;2022-08-03T11:41:46;1.48;;;0.80;;
20320;SDS011;10318;47.674;9.052;2022-08-03T11:46:59;0.82;;;0.80;;
20320;SDS011;10318;47.674;9.052;2022-08-03T11:49:26;1.95;;;1.00;;
20320;SDS011;10318;47.674;9.052;2022-08-03T11:51:52;1.20;;;1.05;;
20320;SDS011;10318;47.674;9.052;2022-08-03T11:54:20;2.17;;;0.98;;
20320;SDS011;10318;47.674;9.052;2022-08-03T11:56:48;2.20;;;1.02;;
20320;SDS011;10318;47.674;9.052;2022-08-03T11:59:15;1.10;;;1.00;;
20320;SDS011;10318;47.674;9.052;2022-08-03T12:01:48;1.50;;;1.10;;
20320;SDS011;10318;47.674;9.052;2022-08-03T12:04:15;2.10;;;0.82;;
20320;SDS011;10318;47.674;9.052;2022-08-03T12:06:56;1.02;;;0.88;;
20320;SDS011;10318;47.674;9.052;2022-08-03T12:09:23;0.98;;;0.90;;
20320;SDS011;10318;47.674;9.052;2022-08-03T12:11:50;2.70;;;0.90;;
20320;SDS011;10318;47.674;9.052;2022-08-03T12:14:27;1.25;;;1.00;;
20320;SDS011;10318;47.674;9.052;2022-08-03T12:17:14;1.17;;;1.10;;
20320;SDS011;10318;47.674;9.052;2022-08-03T12:19:42;1.60;;;1.00;;
20320;SDS011;10318;47.674;9.052;2022-08-03T12:22:09;1.10;;;1.00;;
20320;SDS011;10318;47.674;9.052;2022-08-03T12:24:41;1.90;;;1.23;;
20320;SDS011;10318;47.674;9.052;2022-08-03T12:27:08;1.10;;;1.00;;
20320;SDS011;10318;47.674;9.052;2022-08-03T12:29:35;1.27;;;1.10;;
20320;SDS011;10318;47.674;9.052;2022-08-03T12:32:02;1.30;;;1.00;;
20320;SDS011;10318;47.674;9.052;2022-08-03T12:34:44;1.40;;;1.08;;
20320;SDS011;10318;47.674;9.052;2022-08-03T12:37:13;2.60;;;1.25;;
20320;SDS011;10318;47.674;9.052;2022-08-03T12:39:49;0.85;;;0.70;;
20320;SDS011;10318;47.674;9.052;2022-08-03T12:42:31;0.80;;;0.80;;
20320;SDS011;10318;47.674;9.052;2022-08-03T12:45:19;2.05;;;1.00;;
20320;SDS011;10318;47.674;9.052;2022-08-03T12:50:23;1.13;;;0.90;;
20320;SDS011;10318;47.674;9.052;2022-08-03T12:52:50;1.15;;;0.98;;
20320;SDS011;10318;47.674;9.052;2022-08-03T12:55:21;1.48;;;1.38;;
20320;SDS011;10318;47.674;9.052;2022-08-03T12:57:48;1.50;;;1.13;;
20320;SDS011;10318;47.674;9.052;2022-08-03T13:00:18;1.27;;;0.90;;
20320;SDS011;10318;47.674;9.052;2022-08-03T13:02:58;1.83;;;0.98;;
20320;SDS011;10318;47.674;9.052;2022-08-03T13:05:46;1.75;;;1.23;;
20320;SDS011;10318;47.674;9.052;2022-08-03T13:08:19;1.58;;;1.10;;
20320;SDS011;10318;47.674;9.052;2022-08-03T13:10:46;2.38;;;1.40;;
20320;SDS011;10318;47.674;9.052;2022-08-03T13:13:13;1.63;;;1.20;;
20320;SDS011;10318;47.674;9.052;2022-08-03T13:15:40;1.95;;;1.13;;
20320;SDS011;10318;47.674;9.052;2022-08-03T13:18:13;1.77;;;1.08;;
20320;SDS011;10318;47.674;9.052;2022-08-03T13:20:43;2.08;;;1.20;;
20320;SDS011;10318;47.674;9.052;2022-08-03T13:23:09;1.13;;;0.90;;
20320;SDS011;10318;47.674;9.052;2022-08-03T13:25:47;1.85;;;0.93;;
20320;SDS011;10318;47.674;9.052;2022-08-03T13:28:21;2.13;;;1.02;;
20320;SDS011;10318;47.674;9.052;2022-08-03T13:30:48;1.33;;;1.20;;
20320;SDS011;10318;47.674;9.052;2022-08-03T13:33:14;3.72;;;1.50;;
20320;SDS011;10318;47.674;9.052;2022-08-03T13:35:41;1.20;;;1.10;;
20320;SDS011;10318;47.674;9.052;2022-08-03T13:38:08;3.00;;;1.02;;
20320;SDS011;10318;47.674;9.052;2022-08-03T13:40:35;1.55;;;1.08;;
20320;SDS011;10318;47.674;9.052;2022-08-03T13:43:07;1.70;;;1.30;;
20320;SDS011;10318;47.674;9.052;2022-08-03T13:45:33;2.10;;;1.20;;
20320;SDS011;10318;47.674;9.052;2022-08-03T13:48:00;1.70;;;1.40;;
20320;SDS011;10318;47.674;9.052;2022-08-03T13:50:27;1.45;;;1.05;;
20320;SDS011;10318;47.674;9.052;2022-08-03T13:52:53;1.30;;;1.20;;
20320;SDS011;10318;47.674;9.052;2022-08-03T13:55:20;3.15;;;1.17;;
20320;SDS011;10318;47.674;9.052;2022-08-03T13:57:47;1.52;;;1.33;;
20320;SDS011;10318;47.674;9.052;2022-08-03T14:00:31;2.15;;;1.20;;
20320;SDS011;10318;47.674;9.052;2022-08-03T14:02:58;1.67;;;1.30;;
20320;SDS011;10318;47.674;9.052;2022-08-03T14:05:34;1.30;;;1.15;;
20320;SDS011;10318;47.674;9.052;2022-08-03T14:08:04;1.27;;;1.05;;
20320;SDS011;10318;47.674;9.052;2022-08-03T14:10:32;1.48;;;1.25;;
20320;SDS011;10318;47.674;9.052;2022-08-03T14:12:59;1.30;;;1.20;;
20320;SDS011;10318;47.674;9.052;2022-08-03T14:15:26;1.40;;;1.20;;
20320;SDS011;10318;47.674;9.052;2022-08-03T14:17:54;1.20;;;1.10;;
20320;SDS011;10318;47.674;9.052;2022-08-03T14:20:24;2.17;;;1.02;;
20320;SDS011;10318;47.674;9.052;2022-08-03T14:23:04;1.73;;;0.98;;
20320;SDS011;10318;47.674;9.052;2022-08-03T14:25:32;1.40;;;0.82;;
20320;SDS011;10318;47.674;9.052;2022-08-03T14:28:16;1.85;;;1.15;;
20320;SDS011;10318;47.674;9.052;2022-08-03T14:30:43;3.15;;;1.00;;
20320;SDS011;10318;47.674;9.052;2022-08-03T14:33:10;2.05;;;1.20;;
20320;SDS011;10318;47.674;9.052;2022-08-03T14:35:36;2.05;;;1.30;;
20320;SDS011;10318;47.674;9.052;2022-08-03T14:38:03;2.03;;;1.10;;
20320;SDS011;10318;47.674;9.052;2022-08-03T14:40:30;1.83;;;1.20;;
20320;SDS011;10318;47.674;9.052;2022-08-03T14:42:57;2.00;;;1.10;;
20320;SDS011;10318;47.674;9.052;2022-08-03T14:45:23;1.85;;;1.23;;
20320;SDS011;10318;47.674;9.052;2022-08-03T14:47:50;3.55;;;1.17;;
20320;SDS011;10318;47.674;9.052;2022-08-03T14:50:37;1.27;;;1.17;;
20320;SDS011;10318;47.674;9.052;2022-08-03T14:53:10;2.83;;;1.52;;
20320;SDS011;10318;47.674;9.052;2022-08-03T14:55:38;1.23;;;1.10;;
20320;SDS011;10318;47.674;9.052;2022-08-03T14:58:17;3.00;;;1.15;;
20320;SDS011;10318;47.674;9.052;2022-08-03T15:00:46;2.05;;;0.98;;
20320;SDS011;10318;47.674;9.052;2022-08-03T15:03:12;1.10;;;1.00;;
20320;SDS011;10318;47.674;9.052;2022-08-03T15:05:42;4.18;;;1.15;;
20320;SDS011;10318;47.674;9.052;2022-08-03T15:08:09;1.65;;;1.10;;
20320;SDS011;10318;47.674;9.052;2022-08-03T15:10:36;3.83;;;1.10;;
20320;SDS011;10318;47.674;9.052;2022-08-03T15:13:13;1.60;;;1.23;;
20320;SDS011;10318;47.674;9.052;2022-08-03T15:15:40;1.67;;;1.00;;
20320;SDS011;10318;47.674;9.052;2022-08-03T15:18:07;1.60;;;1.00;;
20320;SDS011;10318;47.674;9.052;2022-08-03T15:20:34;2.38;;;1.25;;
20320;SDS011;10318;47.674;9.052;2022-08-03T15:23:16;1.42;;;0.98;;
20320;SDS011;10318;47.674;9.052;2022-08-03T15:25:44;2.65;;;1.02;;
20320;SDS011;10318;47.674;9.052;2022-08-03T15:28:31;1.63;;;1.27;;
20320;SDS011;10318;47.674;9.052;2022-08-03T15:30:57;2.28;;;1.10;;
20320;SDS011;10318;47.674;9.052;2022-08-03T15:33:24;2.65;;;1.30;;
20320;SDS011;10318;47.674;9.052;2022-08-03T15:35:51;1.35;;;1.15;;
20320;SDS011;10318;47.674;9.052;2022-08-03T15:38:18;1.90;;;1.15;;
20320;SDS011;10318;47.674;9.052;2022-08-03T15:40:45;1.60;;;1.08;;
20320;SDS011;10318;47.674;9.052;2022-08-03T15:43:12;1.10;;;1.00;;